X  Cerrar Datos meteorológicos de aviación METAR        EDDG Twente
Temperatura
23°C Temperatura
13°C Punto de rocío
53% Humedad



Viento
11 KM/H
7 MPH
3 M/S
6 NUDO



60°
ENE
Condiciones actuales

Mostly Sunny Mayormente soleado
Presión 1005 (hPa) - 29.67 (inHg)
Visibilidad 6 (milla) - 10 (km)
Aeropuerto
Código de aeropuerto EDDG

localidad: Twente
Distancia: 7 (km)

Metar:
METAR EDDG 211620Z AUTO 06006KT 360V110 CAVOK 23/13 Q1005 NOSIG

Hora: 21-05-2024 18:20 CEST